Accueil
METAR-TAF:

METAR-TAF

Aéroports :

Hawthorne, Californie, États-Unis

latitude: 33-55-25N, longitude: 118-19-55W, altitude: 19 m

Observation

Le bulletin a été fait il y a 4 heures et 56 minutes, à 10:53 UTC
Vent calme
Température 11°C
Humidité 82%
Pression 1015 hPa
Visibilité: 16.1 km
Nuages fragmentés à une hauteur de 7000 ft

METAR: KHHR 081053Z AUTO 00000KT 10SM BKN070 11/08 A2998 RMK AO2 SLP153 T01060083 $

Heure: 08:49 (15:49 UTC)


TAF: absent

Observations et prévisions météorologiques de plus de 4000 aéroports (messages METAR et TAF).

Les stations disponibles sont représentées par des disques jaunes et rouges sur la carte.

Passer la souris dessus pour voir le nom de la station.

Cliquer dessus pour voir les observations et prévisions météorologiques.

Pour changer de carte: cliquez sur les boutons verts avec une croix noire pour zoomer, sur le bouton vert avec un tiret pour effectuer un zoom arrière, ou sur les flèches vertes pour les cartes adjacentes.


METAR-TAF: